Time;durP1;ratioP1;P1;durP2;ratioP2;P2;SDS_P1;SDS_P2;PMS_P1;PMS_P2;Temp;Humidity;BMP_temperature;BMP_pressure;BME280_temperature;BME280_humidity;BME280_pressure;Samples;Min_cycle;Max_cycle;Signal;HPM_P1;HPM_P2
2023/11/10 00:01:27;;;;;;;8.10;3.35;;;;;;;25.85;37.08;99310.31;4484915;32;33819;-58
2023/11/10 00:03:55;;;;;;;6.75;3.00;;;;;;;25.85;37.11;99301.31;4484785;32;34174;-58
2023/11/10 00:06:23;;;;;;;5.62;3.42;;;;;;;25.81;37.22;99305.63;4484679;32;34058;-58
2023/11/10 00:08:50;;;;;;;9.30;3.25;;;;;;;25.78;37.33;99295.19;4484673;32;33886;-59
2023/11/10 00:11:18;;;;;;;6.07;3.05;;;;;;;25.76;37.38;99305.56;4484744;32;33563;-60
2023/11/10 00:13:46;;;;;;;7.30;3.20;;;;;;;25.74;37.41;99308.53;4484595;32;34048;-59
2023/11/10 00:16:14;;;;;;;5.43;2.95;;;;;;;25.71;37.51;99300.81;4484735;32;34654;-59
2023/11/10 00:18:44;;;;;;;9.70;3.58;;;;;;;25.69;37.60;99303.81;4484770;32;33616;-59
2023/11/10 00:21:21;;;;;;;5.45;3.00;;;;;;;25.68;37.64;99307.59;4484844;32;33547;-58
2023/11/10 00:23:50;;;;;;;6.32;3.28;;;;;;;25.68;37.70;99309.50;4484419;32;33283;-59
2023/11/10 00:26:20;;;;;;;5.10;3.35;;;;;;;25.66;37.73;99308.97;4484503;32;33863;-58
2023/11/10 00:28:48;;;;;;;7.15;3.12;;;;;;;25.63;37.90;99304.81;4484577;32;33610;-59
2023/11/10 00:31:18;;;;;;;4.95;2.87;;;;;;;25.62;37.92;99305.91;4484532;32;34030;-58
2023/11/10 00:33:50;;;;;;;6.57;2.97;;;;;;;25.62;37.98;99299.63;4484503;32;34513;-58
2023/11/10 00:36:18;;;;;;;5.32;2.58;;;;;;;25.60;37.99;99308.06;4483452;32;33950;-58
2023/11/10 00:38:46;;;;;;;5.78;2.95;;;;;;;25.59;38.04;99311.03;4484688;32;34706;-57
2023/11/10 00:41:14;;;;;;;4.80;2.78;;;;;;;25.58;38.05;99312.12;4484423;32;33676;-58
2023/11/10 00:43:42;;;;;;;4.70;2.78;;;;;;;25.56;38.11;99315.13;4484578;32;33361;-58
2023/11/10 00:46:10;;;;;;;5.43;2.60;;;;;;;25.55;38.09;99294.31;4484751;32;34530;-58
2023/11/10 00:48:38;;;;;;;5.35;3.12;;;;;;;25.54;38.16;99291.84;4484373;32;34795;-59
2023/11/10 00:51:06;;;;;;;9.57;3.07;;;;;;;25.54;38.33;99289.12;4484524;32;34608;-58
2023/11/10 00:53:34;;;;;;;5.72;3.08;;;;;;;25.52;38.33;99283.91;4484633;32;33957;-59
2023/11/10 00:56:02;;;;;;;4.90;2.83;;;;;;;25.51;38.35;99285.00;4484275;32;34355;-58
2023/11/10 00:58:29;;;;;;;6.05;3.12;;;;;;;25.49;38.35;99281.69;4484487;32;34450;-58
2023/11/10 01:00:57;;;;;;;4.97;2.90;;;;;;;25.48;38.39;99285.50;4484512;32;34026;-58
2023/11/10 01:03:24;;;;;;;5.95;2.70;;;;;;;25.47;38.39;99283.84;4484655;32;33868;-58
2023/11/10 01:05:52;;;;;;;7.40;2.92;;;;;;;25.46;38.40;99282.19;4484523;32;34709;-58
2023/11/10 01:08:20;;;;;;;6.18;3.40;;;;;;;25.45;38.48;99275.06;4484337;32;34951;-59
2023/11/10 01:10:47;;;;;;;4.68;2.53;;;;;;;25.43;38.58;99269.87;4484153;32;33637;-58
2023/11/10 01:13:15;;;;;;;6.00;3.05;;;;;;;25.42;38.60;99264.66;4483184;32;34099;-58
2023/11/10 01:15:42;;;;;;;4.60;2.20;;;;;;;25.41;38.62;99263.84;4484248;32;33971;-59
2023/11/10 01:18:10;;;;;;;5.05;2.87;;;;;;;25.40;38.67;99264.88;4484430;32;33454;-58
2023/11/10 01:20:38;;;;;;;4.15;2.30;;;;;;;25.39;38.66;99259.69;4484192;32;34570;-58
2023/11/10 01:23:05;;;;;;;6.20;3.15;;;;;;;25.39;38.67;99262.44;4484154;32;33981;-58
2023/11/10 01:25:33;;;;;;;4.68;2.50;;;;;;;25.38;38.66;99252.59;4484611;32;33853;-58
2023/11/10 01:28:01;;;;;;;5.03;2.85;;;;;;;25.38;38.63;99247.94;4484168;32;35022;-59
2023/11/10 01:30:28;;;;;;;4.65;2.75;;;;;;;25.36;38.69;99249.25;4484094;32;34524;-59
2023/11/10 01:32:56;;;;;;;5.32;2.62;;;;;;;25.36;38.68;99246.53;4484326;32;32940;-57
2023/11/10 01:35:23;;;;;;;4.57;2.62;;;;;;;25.34;38.72;99241.34;4483179;32;33675;-58
2023/11/10 01:37:51;;;;;;;4.15;2.33;;;;;;;25.34;38.71;99240.50;4484169;32;34155;-60
2023/11/10 01:40:19;;;;;;;5.47;2.60;;;;;;;25.32;38.73;99231.72;4484204;32;34502;-59
2023/11/10 01:42:47;;;;;;;4.12;2.50;;;;;;;25.30;38.81;99226.53;4484165;32;34095;-58
2023/11/10 01:45:15;;;;;;;6.50;2.65;;;;;;;25.29;38.81;99226.78;4483888;32;34580;-59
2023/11/10 01:47:45;;;;;;;4.22;2.55;;;;;;;25.30;38.84;99220.25;4483950;32;34633;-59
2023/11/10 01:50:13;;;;;;;4.68;2.53;;;;;;;25.29;38.81;99216.69;4482612;32;34578;-59
2023/11/10 01:52:41;;;;;;;4.65;2.85;;;;;;;25.28;38.86;99222.41;4495461;31;33037;-59
2023/11/10 01:55:10;;;;;;;3.95;2.55;;;;;;;25.28;38.84;99219.69;4481907;32;34918;-60
2023/11/10 01:57:38;;;;;;;4.32;2.90;;;;;;;25.26;38.90;99213.63;4468278;32;34934;-59
2023/11/10 02:00:06;;;;;;;4.68;2.50;;;;;;;25.25;38.91;99215.53;4468205;32;34557;-59
2023/11/10 02:02:37;;;;;;;4.93;2.40;;;;;;;25.24;38.93;99211.16;4467179;32;33490;-59
2023/11/10 02:05:06;;;;;;;4.43;2.55;;;;;;;25.25;38.91;99217.44;4466524;32;34605;-59
2023/11/10 02:07:33;;;;;;;4.37;2.47;;;;;;;25.24;38.93;99224.00;4466862;32;34101;-58
2023/11/10 02:10:01;;;;;;;4.30;2.67;;;;;;;25.24;39.00;99213.06;4466801;32;34647;-58
2023/11/10 02:12:29;;;;;;;5.07;3.12;;;;;;;25.22;39.03;99210.56;4468052;32;33809;-58
2023/11/10 02:14:57;;;;;;;4.53;2.65;;;;;;;25.23;38.99;99216.84;4467975;32;33564;-59
2023/11/10 02:17:24;;;;;;;3.97;2.40;;;;;;;25.22;39.06;99215.22;4468319;32;33761;-59
2023/11/10 02:19:52;;;;;;;4.55;2.35;;;;;;;25.21;39.07;99213.56;4468002;32;34737;-60
2023/11/10 02:22:19;;;;;;;4.35;2.47;;;;;;;25.19;39.07;99205.63;4468105;32;33158;-58
2023/11/10 02:24:47;;;;;;;6.62;2.72;;;;;;;25.18;39.10;99202.09;4467857;32;33718;-58
2023/11/10 02:27:15;;;;;;;4.28;2.70;;;;;;;25.18;39.08;99199.34;4466769;32;34044;-57
2023/11/10 02:29:42;;;;;;;4.55;2.62;;;;;;;25.17;39.15;99202.31;4478741;32;33536;-58
2023/11/10 02:32:11;;;;;;;5.03;2.75;;;;;;;25.15;39.15;99194.38;4483444;32;34153;-58
2023/11/10 02:34:39;;;;;;;4.78;2.50;;;;;;;25.15;39.19;99188.94;4483558;32;33805;-59
2023/11/10 02:37:08;;;;;;;3.75;2.37;;;;;;;25.13;39.17;99193.84;4483406;32;33533;-58
2023/11/10 02:39:36;;;;;;;6.37;2.62;;;;;;;25.12;39.19;99194.88;4483657;32;34050;-59
2023/11/10 02:42:04;;;;;;;4.45;2.50;;;;;;;25.12;39.21;99192.16;4483213;32;34070;-59
2023/11/10 02:44:32;;;;;;;6.87;2.40;;;;;;;25.11;39.25;99193.25;4483228;32;33914;-59
2023/11/10 02:46:59;;;;;;;4.57;2.62;;;;;;;25.10;39.28;99194.31;4485195;32;33893;-58
2023/11/10 02:49:27;;;;;;;4.68;2.40;;;;;;;25.09;39.35;99198.13;4485400;32;34060;-58
2023/11/10 02:51:55;;;;;;;4.10;2.22;;;;;;;25.09;39.31;99186.41;4485417;32;33375;-59
2023/11/10 02:54:22;;;;;;;3.92;2.35;;;;;;;25.08;39.29;99185.53;4485613;32;33906;-58
2023/11/10 02:56:50;;;;;;;5.47;2.47;;;;;;;25.07;39.29;99181.16;4485249;32;34669;-58
2023/11/10 02:59:17;;;;;;;4.07;2.20;;;;;;;25.08;39.31;99191.00;4485237;32;34480;-59
2023/11/10 03:01:45;;;;;;;5.18;2.60;;;;;;;25.07;39.31;99197.53;4485260;32;34415;-58
2023/11/10 03:04:12;;;;;;;4.80;2.47;;;;;;;25.05;39.36;99190.69;4484201;32;33754;-58
2023/11/10 03:06:40;;;;;;;4.12;2.65;;;;;;;25.05;39.32;99185.22;4485248;32;33545;-59
2023/11/10 03:09:08;;;;;;;4.18;2.42;;;;;;;25.04;39.37;99178.09;4485267;32;33810;-59
2023/11/10 03:11:35;;;;;;;6.95;2.80;;;;;;;25.03;39.36;99174.53;4484991;31;33463;-58
2023/11/10 03:14:03;;;;;;;3.67;2.15;;;;;;;25.03;39.39;99176.44;4485237;32;33897;-59
2023/11/10 03:16:30;;;;;;;7.25;2.50;;;;;;;25.02;39.39;99170.16;4485205;32;33919;-58
2023/11/10 03:18:58;;;;;;;4.78;2.40;;;;;;;25.01;39.43;99165.78;4485044;32;33756;-58
2023/11/10 03:21:27;;;;;;;4.68;2.53;;;;;;;25.00;39.41;99168.78;4485288;32;34309;-58
2023/11/10 03:23:54;;;;;;;4.10;2.10;;;;;;;25.00;39.46;99174.22;4485243;32;34746;-58
2023/11/10 03:26:22;;;;;;;5.22;3.00;;;;;;;25.00;39.45;99168.78;4484953;32;34204;-58
2023/11/10 03:28:50;;;;;;;3.78;2.30;;;;;;;24.98;39.52;99171.72;4485055;32;34096;-59
2023/11/10 03:31:17;;;;;;;4.65;2.78;;;;;;;24.98;39.49;99171.72;4485313;32;33304;-58
2023/11/10 03:33:46;;;;;;;5.40;2.83;;;;;;;24.97;39.49;99172.00;4485230;32;33928;-58
2023/11/10 03:36:14;;;;;;;3.37;2.05;;;;;;;24.96;39.50;99168.44;4485459;32;33401;-58
2023/11/10 03:38:45;;;;;;;4.03;2.33;;;;;;;24.96;39.53;99173.06;4485039;32;34646;-60
2023/11/10 03:41:13;;;;;;;4.10;2.30;;;;;;;24.96;39.58;99170.34;4484806;32;34632;-57
2023/11/10 03:43:41;;;;;;;4.05;2.20;;;;;;;24.96;39.48;99165.72;4485041;32;33725;-58
2023/11/10 03:46:10;;;;;;;6.35;2.65;;;;;;;24.94;39.49;99165.13;4485417;32;34012;-59
2023/11/10 03:48:38;;;;;;;4.70;2.62;;;;;;;24.93;39.48;99166.22;4484649;32;33915;-59
2023/11/10 03:51:08;;;;;;;4.65;2.55;;;;;;;24.95;39.43;99158.62;4484935;32;34353;-59
2023/11/10 03:53:36;;;;;;;4.75;2.75;;;;;;;24.92;39.51;99156.38;4485105;32;34068;-58
2023/11/10 03:56:04;;;;;;;4.40;2.47;;;;;;;24.93;39.43;99142.47;4484970;32;34019;-59
2023/11/10 03:58:31;;;;;;;4.65;2.50;;;;;;;24.93;39.42;99147.09;4484311;32;34479;-58
2023/11/10 04:00:59;;;;;;;8.50;2.53;;;;;;;24.91;39.46;99141.91;4484762;32;33468;-59
2023/11/10 04:03:27;;;;;;;4.15;2.50;;;;;;;24.92;39.48;99145.47;4485154;32;33996;-59
2023/11/10 04:05:54;;;;;;;4.65;2.67;;;;;;;24.91;39.56;99141.09;4484818;32;35006;-58
2023/11/10 04:08:22;;;;;;;4.12;2.35;;;;;;;24.90;39.54;99132.06;4484756;32;33844;-59
2023/11/10 04:10:49;;;;;;;4.55;2.33;;;;;;;24.89;39.58;99127.66;4483534;32;33328;-58
2023/11/10 04:13:17;;;;;;;5.10;2.62;;;;;;;24.88;39.60;99128.75;4484693;32;33805;-58
2023/11/10 04:15:44;;;;;;;4.82;2.28;;;;;;;24.88;39.58;99126.03;4484882;32;33136;-58
2023/11/10 04:18:21;;;;;;;5.62;2.30;;;;;;;24.87;39.59;99118.94;4484789;32;33938;-57
2023/11/10 04:20:49;;;;;;;6.10;2.37;;;;;;;24.87;39.65;99127.13;4484787;32;34313;-58
2023/11/10 04:23:17;;;;;;;4.95;2.30;;;;;;;24.86;39.65;99119.19;4484612;32;34607;-57
2023/11/10 04:25:45;;;;;;;4.50;2.47;;;;;;;24.85;39.67;99118.34;4484917;32;33932;-59
2023/11/10 04:28:12;;;;;;;5.03;2.42;;;;;;;24.84;39.71;99119.41;4484950;32;34163;-58
2023/11/10 04:30:40;;;;;;;4.18;2.47;;;;;;;24.84;39.75;99124.06;4484490;32;34138;-56
2023/11/10 04:33:07;;;;;;;4.22;2.20;;;;;;;24.83;39.71;99112.31;4484598;32;33851;-59
2023/11/10 04:35:35;;;;;;;3.53;2.20;;;;;;;24.83;39.73;99115.03;4484958;32;34009;-56
2023/11/10 04:38:04;;;;;;;3.97;2.12;;;;;;;24.83;39.76;99106.03;4484285;32;33850;-58
2023/11/10 04:40:32;;;;;;;4.82;2.20;;;;;;;24.81;39.76;99102.75;4484631;32;33640;-58
2023/11/10 04:43:00;;;;;;;3.75;2.30;;;;;;;24.82;39.77;99104.41;4484640;32;33961;-57
2023/11/10 04:45:29;;;;;;;3.37;2.28;;;;;;;24.80;39.73;99107.34;4484592;32;33824;-58
2023/11/10 04:47:57;;;;;;;3.83;2.30;;;;;;;24.80;39.79;99106.53;4484645;32;33940;-59
2023/11/10 04:50:25;;;;;;;4.22;2.15;;;;;;;24.79;39.81;99105.72;4483235;32;34171;-58
2023/11/10 04:52:52;;;;;;;4.12;2.70;;;;;;;24.78;39.81;99098.59;4484502;32;33799;-58
2023/11/10 04:55:20;;;;;;;3.47;2.08;;;;;;;24.79;39.83;99093.97;4484762;32;33886;-59
2023/11/10 04:57:47;;;;;;;6.05;2.35;;;;;;;24.78;39.87;99089.59;4484433;32;33607;-59
2023/11/10 05:00:16;;;;;;;6.07;2.42;;;;;;;24.77;39.84;99094.25;4484418;32;33010;-59
2023/11/10 05:02:44;;;;;;;7.95;2.10;;;;;;;24.77;39.90;99087.97;4484360;32;34562;-58
2023/11/10 05:05:15;;;;;;;6.72;2.22;;;;;;;24.77;39.90;99085.22;4484297;32;34798;-58
2023/11/10 05:07:43;;;;;;;3.87;2.35;;;;;;;24.76;39.92;99083.56;4482680;32;33816;-60
2023/11/10 05:10:14;;;;;;;4.72;2.22;;;;;;;24.75;39.96;99093.66;4482707;32;33326;-58
2023/11/10 05:12:42;;;;;;;6.85;2.67;;;;;;;24.75;39.96;99081.91;4483810;32;34560;-60
2023/11/10 05:15:10;;;;;;;5.60;1.80;;;;;;;24.74;40.02;99081.09;4482970;32;33924;-60
2023/11/10 05:17:43;;;;;;;5.55;2.20;;;;;;;24.74;39.97;99083.00;4483956;32;34647;-59
2023/11/10 05:20:11;;;;;;;5.22;2.45;;;;;;;24.73;40.02;99078.63;4483840;32;33713;-59
2023/11/10 05:22:42;;;;;;;4.60;2.58;;;;;;;24.74;40.02;99080.28;4483094;32;33806;-59
2023/11/10 05:25:13;;;;;;;6.15;2.62;;;;;;;24.73;39.92;99082.19;4484040;32;33741;-60
2023/11/10 05:27:40;;;;;;;7.18;3.10;;;;;;;24.72;39.92;99080.53;4482651;32;34937;-61
2023/11/10 05:30:12;;;;;;;11.55;3.30;;;;;;;24.72;38.87;99077.81;4484101;32;33636;-60
2023/11/10 05:32:40;;;;;;;8.93;3.17;;;;;;;24.70;38.66;99074.47;4483622;32;33950;-60
2023/11/10 05:35:08;;;;;;;9.20;3.20;;;;;;;24.68;38.77;99080.22;4484122;32;33888;-60
2023/11/10 05:37:36;;;;;;;6.18;3.30;;;;;;;24.66;38.93;99076.88;4483719;32;34667;-59
2023/11/10 05:40:05;;;;;;;6.37;2.70;;;;;;;24.64;39.01;99084.50;4483657;32;33078;-61
2023/11/10 05:42:33;;;;;;;5.87;2.83;;;;;;;24.63;39.05;99079.31;4483733;32;33854;-60
2023/11/10 05:45:00;;;;;;;5.18;2.47;;;;;;;24.63;39.07;99073.84;4482450;32;34706;-60
2023/11/10 05:47:28;;;;;;;5.50;2.80;;;;;;;24.58;39.11;99077.34;4483533;32;34043;-60
2023/11/10 05:49:56;;;;;;;7.35;2.87;;;;;;;24.57;39.14;99078.41;4483634;32;32992;-60
2023/11/10 05:52:23;;;;;;;9.02;3.00;;;;;;;24.56;39.13;99084.94;4483654;32;33592;-60
2023/11/10 05:54:51;;;;;;;7.97;2.70;;;;;;;24.54;39.11;99081.66;4483841;32;33881;-59
2023/11/10 05:57:19;;;;;;;6.07;2.78;;;;;;;24.52;39.22;99078.31;4483553;32;33804;-60
2023/11/10 05:59:47;;;;;;;9.75;2.92;;;;;;;24.51;39.21;99076.69;4481941;32;33425;-60
2023/11/10 06:02:17;;;;;;;4.10;2.40;;;;;;;24.50;39.18;99076.94;4481879;32;34052;-60
2023/11/10 06:04:45;;;;;;;5.18;2.80;;;;;;;24.49;39.22;99078.03;4482015;32;34963;-60
2023/11/10 06:07:13;;;;;;;4.87;2.62;;;;;;;24.48;39.23;99081.81;4482804;32;33764;-60
2023/11/10 06:09:40;;;;;;;6.62;3.40;;;;;;;24.45;39.27;99077.69;4482734;32;33200;-60
2023/11/10 06:12:08;;;;;;;3.87;2.37;;;;;;;24.43;39.25;99077.97;4482623;31;33101;-60
2023/11/10 06:14:35;;;;;;;5.95;2.92;;;;;;;24.43;39.25;99085.28;4483453;32;34132;-60
2023/11/10 06:17:03;;;;;;;10.18;2.92;;;;;;;24.42;39.33;99098.09;4483568;32;33910;-60
2023/11/10 06:19:30;;;;;;;6.05;3.03;;;;;;;24.40;39.34;99091.25;4483600;32;33621;-60
2023/11/10 06:21:58;;;;;;;7.37;3.12;;;;;;;24.39;39.33;99084.97;4485199;32;34739;-60
2023/11/10 06:24:26;;;;;;;5.45;3.05;;;;;;;24.38;39.30;99080.56;4485345;32;34105;-61
2023/11/10 06:26:53;;;;;;;6.93;2.87;;;;;;;24.36;39.36;99088.19;4485531;32;34547;-60
2023/11/10 06:29:21;;;;;;;7.05;2.67;;;;;;;24.36;39.33;99087.34;4485463;32;33007;-60
2023/11/10 06:31:48;;;;;;;6.03;2.87;;;;;;;24.35;39.34;99082.97;4485461;32;33485;-61
2023/11/10 06:34:17;;;;;;;5.75;3.05;;;;;;;24.34;39.36;99081.28;4485291;32;34940;-60
2023/11/10 06:36:45;;;;;;;5.35;2.80;;;;;;;24.32;39.33;99084.28;4484577;32;33799;-60
2023/11/10 06:39:15;;;;;;;5.35;2.87;;;;;;;24.33;39.33;99075.03;4485616;32;33540;-60
2023/11/10 06:41:42;;;;;;;;;;;;;;;24.32;39.35;99078.84;4485813;32;34062;-60
2023/11/10 06:44:11;;;;;;;6.07;3.00;;;;;;;24.41;39.08;99073.81;4485532;32;33703;-60
2023/11/10 06:46:39;;;;;;;6.68;3.12;;;;;;;24.32;39.19;99073.38;4485507;32;33781;-60
2023/11/10 06:49:07;;;;;;;6.20;2.90;;;;;;;24.30;39.25;99080.16;4485406;32;34436;-60
2023/11/10 06:51:36;;;;;;;6.00;3.30;;;;;;;24.28;39.29;99082.31;4485196;32;33632;-60
2023/11/10 06:54:03;;;;;;;6.53;3.37;;;;;;;24.27;39.25;99080.66;4485675;32;33754;-60
2023/11/10 06:56:32;;;;;;;6.25;3.55;;;;;;;24.26;39.23;99089.91;4485308;32;34579;-61
2023/11/10 06:58:59;;;;;;;6.97;4.07;;;;;;;24.25;39.30;99096.41;4485278;32;33451;-61
2023/11/10 07:01:28;;;;;;;8.70;5.95;;;;;;;24.23;38.95;99098.59;4485303;32;34312;-60
2023/11/10 07:03:56;;;;;;;8.23;4.47;;;;;;;24.23;38.54;99101.31;4484191;32;34055;-60
2023/11/10 07:06:25;;;;;;;9.05;5.30;;;;;;;24.23;38.60;99098.59;4485131;32;33999;-60
2023/11/10 07:08:52;;;;;;;7.40;4.60;;;;;;;24.22;38.64;99107.84;4485300;32;34326;-59
2023/11/10 07:11:21;;;;;;;7.05;4.90;;;;;;;24.21;38.76;99106.19;4484355;32;33543;-60
2023/11/10 07:13:50;;;;;;;8.15;4.60;;;;;;;24.21;38.80;99100.75;4485084;32;34757;-60
2023/11/10 07:16:20;;;;;;;6.80;4.28;;;;;;;24.21;38.87;99104.28;4485495;32;33581;-59
2023/11/10 07:18:49;;;;;;;8.55;4.68;;;;;;;24.20;38.87;99108.06;4485569;32;33275;-60
2023/11/10 07:21:16;;;;;;;7.78;4.85;;;;;;;24.21;38.85;99103.47;4485171;32;34442;-61
2023/11/10 07:23:44;;;;;;;6.82;4.32;;;;;;;24.21;38.87;99089.84;4485284;32;33696;-60
2023/11/10 07:26:12;;;;;;;9.40;4.70;;;;;;;24.21;38.88;99096.13;4483728;32;33649;-60
2023/11/10 07:28:39;;;;;;;8.13;5.00;;;;;;;24.22;38.91;99107.84;4485103;32;34249;-59
2023/11/10 07:31:08;;;;;;;7.10;4.43;;;;;;;24.21;38.88;99093.41;4485086;32;33662;-60
2023/11/10 07:33:36;;;;;;;7.60;4.60;;;;;;;24.22;38.85;99091.50;4482676;32;34805;-62
2023/11/10 07:36:04;;;;;;;8.48;4.57;;;;;;;24.23;38.85;99088.50;4484019;32;33599;-61
2023/11/10 07:38:32;;;;;;;8.60;4.30;;;;;;;24.22;38.92;99096.94;4485080;32;34306;-61
2023/11/10 07:40:59;;;;;;;11.88;5.00;;;;;;;24.23;38.90;99093.13;4484835;32;33581;-60
2023/11/10 07:43:27;;;;;;;9.63;4.47;;;;;;;24.21;38.90;99079.75;4485001;32;34050;-61
2023/11/10 07:45:54;;;;;;;8.27;4.87;;;;;;;24.22;38.85;99080.59;4483659;32;35002;-60
2023/11/10 07:48:22;;;;;;;8.90;4.93;;;;;;;24.23;38.81;99082.22;4484696;32;33249;-59
2023/11/10 07:50:50;;;;;;;11.25;4.60;;;;;;;24.22;38.83;99081.41;4484992;32;33863;-61
2023/11/10 07:53:17;;;;;;;9.45;5.12;;;;;;;24.23;38.86;99084.94;4484765;32;34121;-59
2023/11/10 07:55:45;;;;;;;6.72;3.97;;;;;;;24.22;38.89;99075.97;4484708;32;34711;-57
2023/11/10 07:58:12;;;;;;;7.30;4.55;;;;;;;24.22;38.92;99081.41;4484869;32;34479;-58
2023/11/10 08:00:40;;;;;;;6.80;4.55;;;;;;;24.22;38.97;99084.13;4484859;32;34685;-55
2023/11/10 08:03:07;;;;;;;8.00;4.47;;;;;;;24.23;38.94;99069.41;4484763;32;34094;-53
2023/11/10 08:05:35;;;;;;;7.65;4.32;;;;;;;24.23;38.93;99066.69;4485107;32;33886;-56
2023/11/10 08:08:05;;;;;;;8.32;4.78;;;;;;;24.22;38.97;99061.50;4484862;32;34297;-57
2023/11/10 08:10:33;;;;;;;6.25;4.20;;;;;;;24.22;38.96;99062.31;4484536;31;34785;-56
2023/11/10 08:13:00;;;;;;;7.80;4.68;;;;;;;24.22;39.01;99059.59;4484810;32;33526;-59
2023/11/10 08:15:29;;;;;;;7.15;4.78;;;;;;;24.22;39.00;99051.41;4484801;32;34501;-56
2023/11/10 08:17:57;;;;;;;7.32;4.30;;;;;;;24.22;39.01;99056.87;4484588;32;34103;-60
2023/11/10 08:20:24;;;;;;;9.32;4.72;;;;;;;24.21;39.04;99052.50;4484592;32;33778;-59
2023/11/10 08:22:52;;;;;;;9.60;4.57;;;;;;;24.21;39.07;99048.97;4484733;32;34831;-56
2023/11/10 08:25:19;;;;;;;9.93;4.62;;;;;;;24.21;39.07;99046.22;4481303;32;34543;-59
2023/11/10 08:27:47;;;;;;;7.12;4.50;;;;;;;24.21;39.10;99043.50;4484748;32;34377;-59
2023/11/10 08:30:16;;;;;;;8.38;4.20;;;;;;;24.21;39.13;99043.50;4484615;32;34845;-61
2023/11/10 08:32:44;;;;;;;6.50;4.32;;;;;;;24.19;39.13;99051.91;4483428;32;34672;-61
2023/11/10 08:35:15;;;;;;;6.60;4.10;;;;;;;24.21;39.13;99048.97;4484591;32;34050;-60
2023/11/10 08:37:42;;;;;;;6.57;4.03;;;;;;;24.20;39.17;99048.09;4484703;32;33187;-59
2023/11/10 08:40:10;;;;;;;6.80;4.37;;;;;;;24.19;39.19;99054.63;4484426;32;33631;-60
2023/11/10 08:42:41;;;;;;;8.52;3.87;;;;;;;24.18;39.23;99045.63;4484064;32;34831;-61
2023/11/10 08:45:11;;;;;;;7.40;4.20;;;;;;;24.18;39.20;99042.09;4483150;32;34653;-59
2023/11/10 08:47:40;;;;;;;6.65;4.10;;;;;;;24.17;39.22;99035.81;4484617;32;34473;-59
2023/11/10 08:50:10;;;;;;;8.23;3.80;;;;;;;24.17;39.22;99030.38;4484752;32;33753;-59
2023/11/10 08:52:42;;;;;;;6.82;3.80;;;;;;;24.17;39.28;99033.09;4484069;32;34791;-59
2023/11/10 08:55:13;;;;;;;7.87;3.90;;;;;;;24.18;39.25;99031.19;4484582;32;34492;-60
2023/11/10 08:57:41;;;;;;;7.15;3.90;;;;;;;24.16;39.26;99039.63;4484370;32;33351;-59
2023/11/10 09:00:10;;;;;;;7.12;4.05;;;;;;;24.16;39.29;99036.91;4483946;32;33861;-61
2023/11/10 09:02:38;;;;;;;7.12;3.87;;;;;;;24.15;39.32;99048.03;4484464;32;34123;-60
2023/11/10 09:05:06;;;;;;;6.95;4.28;;;;;;;24.16;39.33;99036.06;4484438;32;33904;-59
2023/11/10 09:07:34;;;;;;;8.50;4.35;;;;;;;24.15;39.34;99037.97;4484488;32;34059;-60
2023/11/10 09:10:02;;;;;;;6.40;4.03;;;;;;;24.14;39.34;99039.03;4483935;32;34574;-60
2023/11/10 09:12:32;;;;;;;6.35;3.97;;;;;;;24.15;39.35;99034.41;4484352;32;33942;-58
2023/11/10 09:14:59;;;;;;;6.62;4.00;;;;;;;24.14;39.36;99033.56;4484605;32;33935;-60
2023/11/10 09:17:28;;;;;;;7.80;3.65;;;;;;;24.15;39.38;99035.25;4484221;32;34125;-59
2023/11/10 09:19:56;;;;;;;7.62;4.53;;;;;;;24.14;39.40;99036.31;4483444;32;33945;-61
2023/11/10 09:22:23;;;;;;;6.70;4.07;;;;;;;24.14;39.39;99030.84;4484052;32;33851;-59
2023/11/10 09:24:51;;;;;;;6.15;3.92;;;;;;;24.14;39.40;99032.75;4484385;32;33856;-59
2023/11/10 09:27:19;;;;;;;7.82;4.07;;;;;;;24.14;39.40;99032.75;4484075;32;34165;-61
2023/11/10 09:29:47;;;;;;;5.78;3.50;;;;;;;24.13;39.43;99037.38;4484087;32;33656;-59
2023/11/10 09:32:14;;;;;;;6.32;4.12;;;;;;;24.12;39.44;99030.28;4484099;32;33655;-60
2023/11/10 09:34:42;;;;;;;7.18;4.20;;;;;;;24.13;39.43;99031.13;4483853;32;34730;-60
2023/11/10 09:37:09;;;;;;;7.57;4.07;;;;;;;24.12;39.44;99024.84;4484494;32;33632;-59
2023/11/10 09:39:37;;;;;;;7.35;4.00;;;;;;;24.13;39.47;99021.03;4483944;32;34575;-55
2023/11/10 09:42:06;;;;;;;5.25;3.25;;;;;;;24.12;39.46;99013.13;4484021;32;33864;-59
2023/11/10 09:44:38;;;;;;;6.53;3.85;;;;;;;24.12;39.48;99005.75;4482909;32;33937;-58
2023/11/10 09:47:08;;;;;;;8.02;3.70;;;;;;;24.11;39.50;99006.84;4484076;32;33069;-58
2023/11/10 09:49:35;;;;;;;5.43;3.60;;;;;;;24.11;39.50;98987.75;4483671;32;33925;-58
2023/11/10 09:52:03;;;;;;;6.78;4.10;;;;;;;24.11;39.47;98995.94;4482933;32;33889;-54
2023/11/10 09:54:31;;;;;;;7.37;3.53;;;;;;;24.11;39.50;98992.41;4482500;32;33984;-59
2023/11/10 09:56:59;;;;;;;7.78;4.10;;;;;;;24.10;39.51;98983.38;4483440;32;33063;-59
2023/11/10 09:59:27;;;;;;;6.03;3.83;;;;;;;24.10;39.53;98980.63;4482864;32;33552;-59
2023/11/10 10:01:55;;;;;;;6.18;3.95;;;;;;;24.10;39.52;98958.00;4472441;32;33954;-60
2023/11/10 10:04:23;;;;;;;6.60;4.20;;;;;;;24.09;39.55;98943.56;4476196;32;33677;-59
2023/11/10 10:06:50;;;;;;;6.90;3.70;;;;;;;24.09;39.55;98946.28;4483931;32;33446;-59
2023/11/10 10:09:18;;;;;;;7.72;3.85;;;;;;;24.09;39.58;98932.66;4482632;32;33389;-60
2023/11/10 10:11:47;;;;;;;7.32;3.55;;;;;;;24.08;39.58;98935.66;4483726;32;33835;-58
2023/11/10 10:14:14;;;;;;;6.43;3.92;;;;;;;24.07;39.60;98925.84;4483903;32;33825;-59
2023/11/10 10:16:54;;;;;;;5.43;3.33;;;;;;;24.06;39.61;98935.91;4483757;32;34126;-60
2023/11/10 10:19:27;;;;;;;5.50;3.62;;;;;;;24.08;39.57;98911.13;4482648;32;34036;-60
2023/11/10 10:21:54;;;;;;;5.70;3.70;;;;;;;24.06;39.59;98899.62;4483509;32;33711;-59
2023/11/10 10:24:22;;;;;;;5.82;3.58;;;;;;;24.07;39.60;98906.75;4483135;32;34662;-59
2023/11/10 10:26:51;;;;;;;5.30;3.50;;;;;;;24.06;39.60;98897.75;4483569;32;33312;-60
2023/11/10 10:29:19;;;;;;;5.75;3.67;;;;;;;24.04;39.62;98902.63;4483300;32;33841;-59
2023/11/10 10:31:46;;;;;;;5.80;3.35;;;;;;;24.05;39.61;98898.81;4483290;32;34009;-59
2023/11/10 10:34:15;;;;;;;5.87;3.60;;;;;;;24.05;39.63;98890.63;4483364;32;33908;-57
2023/11/10 10:36:44;;;;;;;5.93;3.40;;;;;;;24.05;39.59;98898.00;4483309;32;33975;-59
2023/11/10 10:39:15;;;;;;;7.93;3.60;;;;;;;24.05;39.59;98896.09;4483045;32;34131;-60
2023/11/10 10:41:43;;;;;;;5.70;3.87;;;;;;;24.06;39.60;98900.50;4483335;32;34755;-59
2023/11/10 10:44:10;;;;;;;5.65;3.60;;;;;;;24.06;39.61;98894.19;4483022;32;34014;-59
2023/11/10 10:46:38;;;;;;;6.12;3.67;;;;;;;24.04;39.62;98883.53;4483281;32;34134;-60
2023/11/10 10:49:07;;;;;;;5.30;3.42;;;;;;;24.05;39.63;98882.47;4482777;32;34681;-60
2023/11/10 10:51:38;;;;;;;7.87;3.45;;;;;;;24.05;39.64;98878.91;4483161;32;33904;-57
2023/11/10 10:54:10;;;;;;;6.05;3.10;;;;;;;24.04;39.66;98867.19;4482939;32;33898;-59
2023/11/10 10:56:37;;;;;;;5.35;3.25;;;;;;;24.03;39.68;98860.09;4482298;32;33401;-61
2023/11/10 10:59:12;;;;;;;8.98;6.30;;;;;;;24.04;39.68;98874.56;4481676;32;34349;-62
2023/11/10 11:01:42;;;;;;;15.18;8.18;;;;;;;24.03;35.26;98851.94;4480519;32;34780;-62
2023/11/10 11:04:16;;;;;;;12.88;8.73;;;;;;;23.91;33.46;98856.66;4471130;32;33817;-63
2023/11/10 11:07:16;;;;;;;12.85;8.32;;;;;;;23.78;31.74;98840.69;4482402;32;33134;-62
2023/11/10 11:09:54;;;;;;;14.07;9.30;;;;;;;23.63;31.94;98838.53;4484112;32;34839;-62
2023/11/10 11:12:28;;;;;;;11.77;8.40;;;;;;;23.47;31.23;98829.34;4471367;32;34860;-58
2023/11/10 11:15:03;;;;;;;13.70;8.35;;;;;;;23.34;32.65;98810.63;4485266;32;33770;-58
2023/11/10 11:17:56;;;;;;;11.30;7.90;;;;;;;23.32;33.69;98813.63;4484889;32;33317;-59
2023/11/10 11:20:24;;;;;;;10.23;7.28;;;;;;;23.35;34.42;98799.50;4483803;32;33062;-59
2023/11/10 11:22:54;;;;;;;10.18;6.45;;;;;;;23.42;34.37;98788.44;4470879;32;34312;-61
2023/11/10 11:25:28;;;;;;;13.18;5.85;;;;;;;23.54;34.64;98793.75;4471827;32;33595;-59
2023/11/10 11:27:57;;;;;;;10.27;5.50;;;;;;;23.68;34.89;98785.00;4467998;32;33909;-59
2023/11/10 11:30:34;;;;;;;8.50;4.90;;;;;;;23.87;35.07;98790.13;4484982;32;33940;-59
2023/11/10 11:33:07;;;;;;;7.43;5.47;;;;;;;24.06;35.16;98777.00;4478905;32;34908;-58
2023/11/10 11:35:43;;;;;;;9.05;4.87;;;;;;;24.19;35.27;98774.72;4478852;32;33933;-59
2023/11/10 11:38:32;;;;;;;7.57;4.60;;;;;;;24.35;35.37;98783.06;4480628;32;32961;-61
2023/11/10 11:41:03;;;;;;;8.18;4.87;;;;;;;24.51;35.44;98776.69;4483568;32;34614;-59